createdAt,value
2023-12-13T00:01:58.225Z,6.60
2023-12-13T00:04:25.621Z,6.80
2023-12-13T00:06:52.435Z,6.60
2023-12-13T00:09:19.115Z,6.50
2023-12-13T00:11:45.952Z,6.50
2023-12-13T00:14:12.755Z,6.40
2023-12-13T00:16:40.085Z,6.40
2023-12-13T00:19:07.673Z,6.40
2023-12-13T00:21:34.623Z,7.70
2023-12-13T00:24:01.502Z,6.40
2023-12-13T00:26:28.306Z,6.30
2023-12-13T00:28:55.073Z,8.80
2023-12-13T00:31:21.808Z,6.30
2023-12-13T00:33:48.533Z,6.40
2023-12-13T00:36:15.784Z,6.40
2023-12-13T00:38:42.774Z,6.30
2023-12-13T00:41:09.475Z,6.30
2023-12-13T00:43:36.375Z,6.30
2023-12-13T00:46:05.174Z,8.20
2023-12-13T00:48:33.248Z,6.20
2023-12-13T00:51:00.102Z,6.30
2023-12-13T00:53:26.976Z,6.30
2023-12-13T00:55:55.023Z,6.40
2023-12-13T00:58:21.910Z,8.40
2023-12-13T01:00:48.893Z,6.40
2023-12-13T01:03:15.980Z,6.40
2023-12-13T01:05:43.330Z,6.40
2023-12-13T01:08:11.138Z,6.40
2023-12-13T01:10:38.009Z,6.20
2023-12-13T01:13:04.919Z,6.30
2023-12-13T01:15:31.717Z,6.20
2023-12-13T01:17:58.353Z,6.20
2023-12-13T01:20:25.251Z,6.20
2023-12-13T01:22:52.004Z,6.10
2023-12-13T01:25:18.918Z,7.20
2023-12-13T01:27:45.811Z,6.00
2023-12-13T01:30:12.655Z,6.00
2023-12-13T01:32:39.743Z,5.90
2023-12-13T01:35:06.949Z,5.80
2023-12-13T01:37:33.783Z,5.70
2023-12-13T01:40:00.681Z,6.40
2023-12-13T01:42:27.435Z,5.70
2023-12-13T01:44:54.419Z,5.60
2023-12-13T01:47:21.393Z,5.60
2023-12-13T01:49:48.177Z,5.60
2023-12-13T01:52:15.524Z,5.60
2023-12-13T01:54:42.471Z,5.60
2023-12-13T01:57:11.038Z,5.70
2023-12-13T01:59:38.558Z,5.70
2023-12-13T02:02:05.757Z,5.70
2023-12-13T02:04:32.874Z,6.80
2023-12-13T02:06:59.523Z,5.70
2023-12-13T02:09:26.131Z,5.90
2023-12-13T02:11:52.797Z,5.70
2023-12-13T02:14:19.801Z,5.70
2023-12-13T02:16:46.669Z,5.70
2023-12-13T02:19:13.565Z,5.80
2023-12-13T02:21:41.392Z,5.90
2023-12-13T02:24:09.380Z,5.90
2023-12-13T02:26:39.743Z,5.90
2023-12-13T02:29:06.872Z,5.90
2023-12-13T02:31:35.188Z,5.90
2023-12-13T02:34:02.296Z,5.90
2023-12-13T02:36:29.298Z,5.90
2023-12-13T02:38:56.054Z,5.80
2023-12-13T02:41:23.175Z,5.80
2023-12-13T02:43:50.138Z,6.60
2023-12-13T02:46:17.245Z,5.80
2023-12-13T02:48:43.918Z,5.70
2023-12-13T02:51:10.789Z,5.60
2023-12-13T02:53:37.496Z,5.60
2023-12-13T02:56:04.562Z,5.50
2023-12-13T02:58:31.472Z,5.50
2023-12-13T03:00:58.307Z,5.50
2023-12-13T03:03:27.901Z,5.40
2023-12-13T03:05:54.804Z,5.40
2023-12-13T03:08:21.535Z,5.40
2023-12-13T03:10:48.725Z,5.40
2023-12-13T03:13:15.843Z,5.50
2023-12-13T03:15:42.648Z,5.60
2023-12-13T03:18:09.491Z,5.50
2023-12-13T03:20:45.676Z,5.50
2023-12-13T03:23:12.831Z,5.50
2023-12-13T03:25:39.636Z,5.60
2023-12-13T03:28:06.325Z,5.60
2023-12-13T03:30:33.046Z,5.60
2023-12-13T03:32:59.795Z,5.70
2023-12-13T03:35:26.957Z,5.70
2023-12-13T03:37:53.792Z,5.70
2023-12-13T03:40:20.559Z,6.40
2023-12-13T03:42:47.303Z,5.60
2023-12-13T03:45:14.064Z,7.40
2023-12-13T03:47:41.180Z,5.60
2023-12-13T03:50:08.619Z,5.60
2023-12-13T03:52:35.317Z,5.50
2023-12-13T03:55:02.175Z,5.60
2023-12-13T03:57:28.831Z,5.60
2023-12-13T03:59:55.572Z,6.70
2023-12-13T04:02:22.324Z,5.60
2023-12-13T04:04:49.534Z,5.60
2023-12-13T04:07:16.652Z,5.60
2023-12-13T04:09:43.338Z,5.80
2023-12-13T04:12:10.176Z,5.60
2023-12-13T04:14:37.177Z,5.90
2023-12-13T04:17:04.266Z,5.70
2023-12-13T04:19:31.022Z,5.60
2023-12-13T04:21:57.710Z,5.60
2023-12-13T04:24:24.440Z,5.70
2023-12-13T04:26:51.120Z,5.60
2023-12-13T04:29:17.991Z,5.60
2023-12-13T04:31:45.184Z,5.70
2023-12-13T04:34:12.066Z,5.70
2023-12-13T04:36:38.961Z,5.60
2023-12-13T04:39:06.726Z,5.70
2023-12-13T04:41:33.817Z,5.60
2023-12-13T04:44:01.073Z,5.60
2023-12-13T04:46:27.877Z,5.60
2023-12-13T04:48:54.739Z,7.70
2023-12-13T04:51:21.481Z,5.50
2023-12-13T04:53:48.416Z,6.40
2023-12-13T04:56:15.405Z,5.30
2023-12-13T04:58:42.133Z,5.30
2023-12-13T05:01:08.893Z,5.30
2023-12-13T05:03:35.749Z,6.80
2023-12-13T05:06:02.533Z,5.40
2023-12-13T05:08:30.513Z,5.90
2023-12-13T05:10:57.853Z,5.60
2023-12-13T05:13:24.567Z,5.50
2023-12-13T05:15:51.634Z,5.50
2023-12-13T05:18:18.497Z,7.40
2023-12-13T05:20:46.006Z,5.50
2023-12-13T05:23:12.663Z,7.00
2023-12-13T05:25:39.853Z,5.60
2023-12-13T05:28:06.520Z,5.50
2023-12-13T05:30:33.391Z,6.90
2023-12-13T05:33:00.307Z,5.50
2023-12-13T05:35:27.246Z,5.40
2023-12-13T05:37:55.744Z,5.40
2023-12-13T05:40:22.533Z,5.40
2023-12-13T05:42:49.923Z,5.40
2023-12-13T05:45:16.739Z,7.40
2023-12-13T05:47:43.527Z,7.10
2023-12-13T05:50:10.562Z,5.20
2023-12-13T05:52:38.307Z,5.10
2023-12-13T05:55:05.399Z,5.10
2023-12-13T05:57:32.335Z,5.10
2023-12-13T05:59:59.196Z,5.10
2023-12-13T06:02:25.983Z,5.10
2023-12-13T06:04:57.828Z,5.70
2023-12-13T06:07:26.941Z,5.10
2023-12-13T06:09:53.828Z,5.20
2023-12-13T06:12:21.161Z,5.20
2023-12-13T06:14:47.934Z,6.80
2023-12-13T06:17:15.209Z,6.40
2023-12-13T06:19:42.193Z,5.40
2023-12-13T06:22:10.551Z,5.40
2023-12-13T06:24:37.375Z,5.40
2023-12-13T06:27:04.754Z,5.40
2023-12-13T06:29:31.435Z,5.40
2023-12-13T06:31:58.142Z,5.40
2023-12-13T06:34:24.860Z,6.60
2023-12-13T06:36:51.580Z,5.60
2023-12-13T06:39:18.199Z,5.30
2023-12-13T06:41:46.479Z,5.70
2023-12-13T06:44:13.179Z,5.70
2023-12-13T06:46:40.019Z,5.70
2023-12-13T06:49:07.667Z,5.70
2023-12-13T06:51:34.727Z,5.70
2023-12-13T06:54:01.395Z,6.00
2023-12-13T06:56:28.119Z,5.70
2023-12-13T06:58:54.944Z,5.60
2023-12-13T07:01:23.540Z,5.60
2023-12-13T07:03:50.518Z,5.60
2023-12-13T07:06:19.501Z,5.60
2023-12-13T07:08:46.641Z,5.60
2023-12-13T07:11:13.818Z,5.60
2023-12-13T07:13:40.811Z,5.60
2023-12-13T07:16:07.824Z,5.60
2023-12-13T07:18:34.857Z,5.50
2023-12-13T07:21:01.628Z,5.50
2023-12-13T07:23:28.308Z,5.60
2023-12-13T07:25:55.201Z,5.60
2023-12-13T07:28:22.216Z,5.60
2023-12-13T07:30:57.182Z,5.60
2023-12-13T07:33:35.885Z,6.80
2023-12-13T07:36:03.204Z,5.70
2023-12-13T07:38:29.939Z,5.80
2023-12-13T07:40:56.924Z,5.90
2023-12-13T07:43:24.214Z,7.40
2023-12-13T07:45:53.566Z,6.00
2023-12-13T07:48:27.665Z,6.00
2023-12-13T07:50:57.168Z,6.00
2023-12-13T07:53:24.042Z,8.20
2023-12-13T07:55:51.582Z,7.70
2023-12-13T07:58:19.624Z,6.00
2023-12-13T08:00:46.941Z,6.00
2023-12-13T08:03:13.856Z,6.00
2023-12-13T08:05:40.550Z,7.40
2023-12-13T08:08:07.222Z,6.00
2023-12-13T08:10:33.951Z,6.00
2023-12-13T08:13:00.804Z,6.10
2023-12-13T08:15:28.107Z,6.10
2023-12-13T08:17:54.965Z,6.10
2023-12-13T08:20:21.829Z,7.80
2023-12-13T08:22:48.771Z,6.20
2023-12-13T08:25:15.518Z,6.20
2023-12-13T08:27:42.702Z,5.90
2023-12-13T08:30:09.520Z,6.30
2023-12-13T08:32:36.311Z,6.20
2023-12-13T08:35:05.383Z,6.30
2023-12-13T08:37:32.541Z,6.30
2023-12-13T08:39:59.508Z,6.30
2023-12-13T08:42:33.548Z,6.30
2023-12-13T08:45:03.698Z,6.30
2023-12-13T08:47:31.056Z,6.30
2023-12-13T08:49:58.079Z,6.40
2023-12-13T08:52:24.786Z,7.80
2023-12-13T08:54:51.485Z,6.50
2023-12-13T08:57:18.151Z,6.50
2023-12-13T08:59:46.151Z,6.60
2023-12-13T09:02:14.366Z,6.60
2023-12-13T09:04:41.119Z,6.60
2023-12-13T09:07:08.276Z,6.60
2023-12-13T09:09:37.151Z,6.70
2023-12-13T09:12:03.932Z,8.50
2023-12-13T09:14:31.293Z,6.70
2023-12-13T09:16:58.311Z,6.80
2023-12-13T09:19:27.173Z,6.90
2023-12-13T09:21:54.233Z,7.00
2023-12-13T09:24:22.939Z,8.80
2023-12-13T09:26:50.498Z,7.10
2023-12-13T09:29:17.204Z,7.10
2023-12-13T09:31:44.228Z,5.40
2023-12-13T09:34:11.611Z,7.10
2023-12-13T09:36:38.300Z,7.10
2023-12-13T09:39:05.955Z,9.20
2023-12-13T09:41:36.799Z,7.00
2023-12-13T09:44:05.043Z,7.00
2023-12-13T09:46:32.101Z,6.90
2023-12-13T09:48:58.990Z,6.90
2023-12-13T09:51:28.516Z,6.80
2023-12-13T09:53:56.709Z,6.80
2023-12-13T09:56:23.729Z,6.90
2023-12-13T09:58:50.569Z,7.30
2023-12-13T10:01:19.527Z,6.80
2023-12-13T10:03:46.684Z,8.40
2023-12-13T10:06:13.526Z,6.80
2023-12-13T10:08:40.258Z,6.90
2023-12-13T10:11:07.900Z,7.90
2023-12-13T10:13:36.046Z,9.10
2023-12-13T10:16:11.058Z,5.40
2023-12-13T10:18:38.418Z,6.90
2023-12-13T10:21:05.234Z,7.30
2023-12-13T10:23:32.290Z,7.00
2023-12-13T10:25:58.987Z,7.10
2023-12-13T10:28:26.122Z,7.10
2023-12-13T10:30:53.091Z,7.20
2023-12-13T10:33:20.694Z,7.20
2023-12-13T10:35:50.422Z,8.90
2023-12-13T10:38:18.033Z,7.30
2023-12-13T10:40:45.009Z,7.30
2023-12-13T10:43:15.152Z,8.40
2023-12-13T10:45:45.103Z,8.50
2023-12-13T10:48:12.002Z,7.50
2023-12-13T10:50:39.265Z,7.70
2023-12-13T10:53:08.225Z,7.90
2023-12-13T10:55:36.866Z,8.00
2023-12-13T10:58:03.643Z,8.10
2023-12-13T11:00:30.686Z,8.10
2023-12-13T11:03:01.247Z,8.00
2023-12-13T11:05:27.905Z,8.00
2023-12-13T11:07:54.602Z,8.00
2023-12-13T11:10:23.827Z,8.10
2023-12-13T11:12:51.284Z,8.00
2023-12-13T11:15:19.024Z,8.10
2023-12-13T11:17:55.316Z,8.20
2023-12-13T11:20:22.691Z,8.30
2023-12-13T11:22:53.279Z,8.40
2023-12-13T11:25:20.176Z,8.40
2023-12-13T11:27:57.097Z,9.80
2023-12-13T11:30:23.867Z,8.40
2023-12-13T11:32:51.286Z,8.40
2023-12-13T11:35:21.488Z,9.10
2023-12-13T11:37:52.391Z,8.30
2023-12-13T11:40:20.136Z,8.30
2023-12-13T11:45:36.699Z,9.50
2023-12-13T11:48:05.672Z,9.90
2023-12-13T11:50:52.712Z,7.30
2023-12-13T11:53:46.350Z,9.90
2023-12-13T11:56:39.630Z,10.60
2023-12-13T11:59:06.344Z,7.30
2023-12-13T12:01:35.514Z,8.30
2023-12-13T12:04:08.841Z,10.10
2023-12-13T12:06:38.440Z,9.80
2023-12-13T12:09:07.379Z,9.40
2023-12-13T12:11:39.530Z,10.60
2023-12-13T12:14:10.088Z,10.60
2023-12-13T12:16:44.764Z,8.10
2023-12-13T12:19:14.935Z,9.70
2023-12-13T12:21:42.961Z,6.80
2023-12-13T12:24:12.073Z,9.70
2023-12-13T12:26:41.499Z,10.20
2023-12-13T12:29:08.231Z,6.40
2023-12-13T12:31:36.701Z,9.50
2023-12-13T12:34:03.720Z,8.10
2023-12-13T12:36:30.586Z,9.70
2023-12-13T12:38:57.719Z,9.80
2023-12-13T12:41:26.188Z,8.40
2023-12-13T12:43:53.879Z,6.50
2023-12-13T12:46:22.494Z,9.90
2023-12-13T12:48:49.625Z,10.00
2023-12-13T12:51:17.224Z,10.70
2023-12-13T12:53:44.399Z,10.20
2023-12-13T12:56:12.630Z,7.40
2023-12-13T12:58:40.161Z,8.80
2023-12-13T13:01:07.377Z,10.40
2023-12-13T13:03:34.732Z,10.70
2023-12-13T13:06:02.524Z,10.80
2023-12-13T13:08:29.243Z,8.60
2023-12-13T13:10:56.199Z,10.50
2023-12-13T13:13:23.439Z,8.00
2023-12-13T13:15:50.670Z,9.50
2023-12-13T13:18:21.808Z,9.90
2023-12-13T13:20:48.865Z,9.70
2023-12-13T13:23:16.126Z,9.70
2023-12-13T13:25:43.739Z,11.00
2023-12-13T13:28:10.617Z,9.90
2023-12-13T13:30:38.505Z,9.90
2023-12-13T13:33:05.646Z,7.50
2023-12-13T13:35:32.742Z,9.40
2023-12-13T13:37:59.552Z,6.90
2023-12-13T13:40:26.750Z,8.80
2023-12-13T13:42:53.660Z,6.60
2023-12-13T13:45:20.985Z,6.60
2023-12-13T13:47:47.831Z,6.60
2023-12-13T13:50:15.027Z,9.40
2023-12-13T13:52:41.947Z,6.60
2023-12-13T13:55:09.482Z,6.60
2023-12-13T13:57:37.132Z,6.60
2023-12-13T14:00:08.715Z,6.60
2023-12-13T14:02:35.926Z,6.70
2023-12-13T14:05:03.317Z,6.80
2023-12-13T14:07:31.015Z,8.60
2023-12-13T14:09:58.021Z,6.80
2023-12-13T14:12:24.760Z,6.90
2023-12-13T14:14:51.660Z,6.80
2023-12-13T14:17:18.327Z,6.80
2023-12-13T14:19:45.042Z,6.70
2023-12-13T14:22:11.903Z,6.60
2023-12-13T14:24:40.063Z,6.60
2023-12-13T14:27:07.578Z,6.60
2023-12-13T14:29:34.634Z,8.80
2023-12-13T14:32:01.886Z,6.60
2023-12-13T14:34:28.665Z,6.50
2023-12-13T14:36:55.396Z,6.50
2023-12-13T14:39:24.280Z,6.50
2023-12-13T14:41:53.028Z,6.50
2023-12-13T14:44:19.964Z,6.40
2023-12-13T14:46:46.911Z,6.30
2023-12-13T14:49:14.619Z,6.40
2023-12-13T14:51:42.827Z,6.40
2023-12-13T14:54:09.684Z,7.80
2023-12-13T14:56:37.575Z,6.30
2023-12-13T14:59:04.522Z,6.30
2023-12-13T15:01:32.750Z,6.30
2023-12-13T15:03:59.649Z,6.20
2023-12-13T15:06:26.515Z,6.20
2023-12-13T15:08:53.345Z,6.20
2023-12-13T15:11:20.372Z,6.10
2023-12-13T15:13:47.209Z,6.10
2023-12-13T15:16:14.013Z,6.10
2023-12-13T15:18:40.958Z,6.10
2023-12-13T15:21:09.048Z,6.00
2023-12-13T15:23:35.968Z,6.00
2023-12-13T15:26:02.846Z,6.00
2023-12-13T15:28:31.911Z,5.90
2023-12-13T15:30:58.760Z,6.00
2023-12-13T15:33:25.934Z,5.90
2023-12-13T15:35:53.542Z,7.80
2023-12-13T15:38:20.562Z,7.50
2023-12-13T15:40:47.519Z,7.00
2023-12-13T15:43:14.685Z,5.90
2023-12-13T15:45:43.094Z,5.80
2023-12-13T15:48:09.998Z,5.80
2023-12-13T15:50:36.773Z,5.80
2023-12-13T15:53:03.583Z,8.30
2023-12-13T15:55:30.417Z,5.80
2023-12-13T15:57:57.577Z,5.80
2023-12-13T16:00:29.024Z,5.80
2023-12-13T16:02:56.168Z,7.40
2023-12-13T16:05:23.077Z,5.80
2023-12-13T16:07:49.855Z,5.70
2023-12-13T16:10:21.331Z,5.70
2023-12-13T16:12:49.799Z,5.80
2023-12-13T16:15:17.435Z,6.50
2023-12-13T16:17:44.992Z,5.70
2023-12-13T16:20:12.387Z,5.70
2023-12-13T16:22:39.563Z,5.80
2023-12-13T16:25:07.812Z,5.80
2023-12-13T16:27:34.961Z,5.80
2023-12-13T16:30:01.802Z,5.80
2023-12-13T16:32:28.538Z,5.80
2023-12-13T16:34:56.156Z,5.80
2023-12-13T16:37:26.390Z,5.80
2023-12-13T16:39:53.122Z,5.90
2023-12-13T16:42:21.593Z,5.90
2023-12-13T16:44:51.192Z,5.90
2023-12-13T16:47:18.065Z,7.10
2023-12-13T16:49:45.668Z,5.90
2023-12-13T16:52:12.730Z,6.20
2023-12-13T16:54:42.532Z,5.80
2023-12-13T16:57:09.670Z,5.70
2023-12-13T16:59:36.536Z,5.70
2023-12-13T17:02:03.982Z,5.60
2023-12-13T17:04:31.067Z,5.40
2023-12-13T17:06:57.867Z,5.30
2023-12-13T17:09:27.043Z,6.80
2023-12-13T17:11:54.092Z,5.20
2023-12-13T17:14:21.322Z,5.20
2023-12-13T17:16:48.189Z,5.30
2023-12-13T17:19:18.792Z,5.40
2023-12-13T17:21:45.876Z,5.40
2023-12-13T17:24:13.098Z,5.50
2023-12-13T17:26:40.141Z,5.50
2023-12-13T17:29:07.039Z,5.50
2023-12-13T17:31:33.753Z,5.50
2023-12-13T17:34:00.842Z,5.60
2023-12-13T17:36:29.477Z,5.60
2023-12-13T17:38:56.220Z,5.60
2023-12-13T17:41:23.223Z,5.60
2023-12-13T17:43:51.364Z,5.50
2023-12-13T17:46:18.209Z,5.60
2023-12-13T17:48:45.981Z,7.40
2023-12-13T17:51:12.805Z,7.00
2023-12-13T17:53:42.199Z,7.60
2023-12-13T17:56:09.457Z,5.50
2023-12-13T17:58:36.903Z,5.50
2023-12-13T18:01:03.909Z,5.50
2023-12-13T18:03:33.285Z,5.50
2023-12-13T18:06:00.339Z,5.50
2023-12-13T18:08:27.398Z,5.50
2023-12-13T18:10:54.436Z,5.50
2023-12-13T18:13:22.260Z,5.50
2023-12-13T18:15:50.449Z,6.50
2023-12-13T18:18:17.371Z,5.50
2023-12-13T18:20:44.246Z,5.60
2023-12-13T18:23:11.037Z,5.50
2023-12-13T18:25:38.323Z,6.70
2023-12-13T18:28:05.178Z,5.50
2023-12-13T18:30:32.137Z,5.50
2023-12-13T18:33:00.732Z,5.60
2023-12-13T18:35:27.502Z,5.50
2023-12-13T18:37:54.559Z,4.80
2023-12-13T18:40:22.409Z,6.80
2023-12-13T18:42:50.903Z,5.60
2023-12-13T18:45:20.734Z,5.60
2023-12-13T18:47:47.999Z,6.70
2023-12-13T18:50:15.043Z,5.70
2023-12-13T18:52:41.881Z,5.70
2023-12-13T18:55:12.825Z,5.70
2023-12-13T18:57:42.931Z,5.60
2023-12-13T19:00:10.181Z,5.60
2023-12-13T19:02:37.902Z,5.50
2023-12-13T19:05:04.980Z,5.50
2023-12-13T19:07:32.018Z,5.50
2023-12-13T19:09:59.127Z,5.50
2023-12-13T19:12:26.661Z,5.30
2023-12-13T19:14:53.682Z,5.40
2023-12-13T19:17:20.701Z,7.20
2023-12-13T19:19:47.561Z,5.40
2023-12-13T19:22:14.269Z,6.60
2023-12-13T19:24:41.121Z,5.40
2023-12-13T19:27:07.876Z,5.40
2023-12-13T19:29:34.746Z,6.90
2023-12-13T19:32:01.509Z,5.30
2023-12-13T19:34:34.994Z,5.20
2023-12-13T19:37:06.936Z,7.00
2023-12-13T19:39:33.937Z,5.10
2023-12-13T19:42:00.888Z,5.10
2023-12-13T19:44:27.549Z,5.00
2023-12-13T19:46:56.212Z,5.00
2023-12-13T19:49:23.292Z,4.80
2023-12-13T19:51:50.290Z,4.80
2023-12-13T19:54:16.944Z,4.60
2023-12-13T19:56:43.634Z,4.60
2023-12-13T19:59:10.516Z,4.60
2023-12-13T20:01:37.332Z,4.50
2023-12-13T20:04:06.160Z,4.60
2023-12-13T20:06:32.973Z,4.60
2023-12-13T20:08:59.730Z,4.50
2023-12-13T20:11:26.427Z,4.50
2023-12-13T20:13:56.688Z,4.50
2023-12-13T20:16:24.973Z,4.40
2023-12-13T20:18:52.076Z,6.00
2023-12-13T20:21:22.580Z,4.30
2023-12-13T20:23:49.250Z,4.30
2023-12-13T20:26:15.954Z,4.30
2023-12-13T20:28:42.738Z,4.20
2023-12-13T20:31:09.773Z,4.20
2023-12-13T20:33:36.601Z,4.60
2023-12-13T20:36:08.046Z,4.10
2023-12-13T20:38:34.851Z,4.10
2023-12-13T20:41:01.761Z,5.60
2023-12-13T20:43:28.815Z,4.10
2023-12-13T20:45:55.695Z,4.10
2023-12-13T20:48:22.896Z,5.20
2023-12-13T20:50:49.585Z,4.10
2023-12-13T20:53:16.371Z,4.10
2023-12-13T20:55:43.188Z,4.20
2023-12-13T20:58:10.043Z,4.30
2023-12-13T21:00:36.824Z,4.30
2023-12-13T21:03:04.622Z,4.30
2023-12-13T21:05:31.769Z,4.40
2023-12-13T21:07:59.012Z,4.50
2023-12-13T21:10:26.121Z,4.50
2023-12-13T21:12:52.910Z,4.50
2023-12-13T21:15:19.899Z,4.50
2023-12-13T21:17:48.439Z,4.50
2023-12-13T21:20:15.351Z,4.50
2023-12-13T21:22:42.573Z,4.50
2023-12-13T21:25:09.673Z,4.50
2023-12-13T21:27:38.559Z,4.50
2023-12-13T21:30:06.427Z,4.50
2023-12-13T21:32:34.046Z,4.50
2023-12-13T21:35:01.954Z,4.50
2023-12-13T21:37:28.801Z,4.60
2023-12-13T21:39:55.637Z,6.30
2023-12-13T21:42:22.594Z,4.60
2023-12-13T21:44:49.598Z,4.70
2023-12-13T21:47:16.433Z,4.70
2023-12-13T21:49:44.556Z,4.60
2023-12-13T21:52:11.405Z,3.60
2023-12-13T21:54:38.212Z,4.60
2023-12-13T21:57:04.905Z,4.60
2023-12-13T21:59:39.459Z,4.50
2023-12-13T22:02:08.605Z,4.50
2023-12-13T22:04:35.385Z,4.60
2023-12-13T22:07:02.195Z,4.60
2023-12-13T22:09:28.891Z,4.50
2023-12-13T22:11:57.664Z,4.50
2023-12-13T22:14:24.368Z,5.70
2023-12-13T22:16:52.778Z,4.50
2023-12-13T22:19:38.027Z,4.50
2023-12-13T22:22:05.793Z,4.50
2023-12-13T22:24:33.068Z,4.50
2023-12-13T22:27:00.177Z,5.70
2023-12-13T22:29:27.142Z,4.50
2023-12-13T22:31:54.022Z,4.50
2023-12-13T22:34:23.106Z,4.50
2023-12-13T22:36:49.825Z,4.60
2023-12-13T22:39:16.503Z,4.50
2023-12-13T22:41:43.204Z,4.50
2023-12-13T22:44:10.323Z,4.40
2023-12-13T22:46:37.345Z,4.40
2023-12-13T22:49:04.173Z,4.30
2023-12-13T22:51:31.017Z,4.30
2023-12-13T22:53:57.729Z,4.30
2023-12-13T22:56:24.503Z,4.20
2023-12-13T22:58:51.533Z,4.30
2023-12-13T23:01:18.779Z,4.20
2023-12-13T23:03:51.550Z,4.20
2023-12-13T23:06:21.564Z,4.10
2023-12-13T23:08:48.301Z,4.00
2023-12-13T23:11:15.052Z,4.00
2023-12-13T23:13:41.779Z,3.90
2023-12-13T23:16:08.623Z,4.20
2023-12-13T23:18:35.791Z,4.00
2023-12-13T23:21:02.847Z,4.10
2023-12-13T23:23:29.588Z,4.10
2023-12-13T23:25:56.341Z,4.10
2023-12-13T23:28:23.039Z,4.10
2023-12-13T23:30:49.759Z,4.10
2023-12-13T23:33:16.539Z,4.10
2023-12-13T23:35:43.612Z,4.10
2023-12-13T23:38:10.417Z,4.10
2023-12-13T23:40:37.202Z,4.10
2023-12-13T23:43:03.889Z,4.10
2023-12-13T23:45:30.554Z,4.20
2023-12-13T23:47:57.384Z,4.20
2023-12-13T23:50:24.135Z,4.20
2023-12-13T23:52:50.816Z,4.20
2023-12-13T23:55:17.495Z,4.30
2023-12-13T23:57:44.548Z,4.30
